createdAt,value
2019-03-21T00:01:15.351Z,96.43
2019-03-21T00:03:43.905Z,117.55
2019-03-21T00:06:15.016Z,122.53
2019-03-21T00:08:44.560Z,108.30
2019-03-21T00:11:49.355Z,109.33
2019-03-21T00:14:23.648Z,105.07
2019-03-21T00:16:52.132Z,121.25
2019-03-21T00:19:20.605Z,104.85
2019-03-21T00:21:49.050Z,100.67
2019-03-21T00:24:17.530Z,106.78
2019-03-21T00:26:45.987Z,113.15
2019-03-21T00:29:14.472Z,117.35
2019-03-21T00:31:42.937Z,117.37
2019-03-21T00:34:11.391Z,105.45
2019-03-21T00:36:39.859Z,101.38
2019-03-21T00:39:09.945Z,113.40
2019-03-21T00:41:38.495Z,99.32
2019-03-21T00:44:17.637Z,114.57
2019-03-21T00:49:04.875Z,95.22
2019-03-21T00:51:33.358Z,103.22
2019-03-21T00:54:01.895Z,101.67
2019-03-21T00:56:30.355Z,100.87
2019-03-21T00:58:58.815Z,102.30
2019-03-21T01:01:27.263Z,94.13
2019-03-21T01:03:55.719Z,101.00
2019-03-21T01:06:24.176Z,110.60
2019-03-21T01:08:52.648Z,110.10
2019-03-21T01:11:21.102Z,106.12
2019-03-21T01:13:49.565Z,109.48
2019-03-21T01:16:18.091Z,111.85
2019-03-21T01:18:47.583Z,100.00
2019-03-21T01:21:16.035Z,111.50
2019-03-21T01:23:44.490Z,101.82
2019-03-21T01:26:14.694Z,99.03
2019-03-21T01:28:43.223Z,104.97
2019-03-21T01:31:11.687Z,112.77
2019-03-21T01:33:40.135Z,108.22
2019-03-21T01:36:08.883Z,112.52
2019-03-21T01:38:37.342Z,106.35
2019-03-21T01:41:08.827Z,103.77
2019-03-21T01:43:37.275Z,111.75
2019-03-21T01:46:11.413Z,98.17
2019-03-21T01:48:39.960Z,92.15
2019-03-21T01:51:09.079Z,99.33
2019-03-21T01:53:37.531Z,98.17
2019-03-21T01:56:05.975Z,96.90
2019-03-21T01:58:34.435Z,101.58
2019-03-21T02:01:02.892Z,100.87
2019-03-21T02:03:31.383Z,106.95
2019-03-21T02:05:59.859Z,99.47
2019-03-21T02:08:28.321Z,97.00
2019-03-21T02:10:56.755Z,90.75
2019-03-21T02:13:25.207Z,95.28
2019-03-21T02:15:53.676Z,86.85
2019-03-21T02:18:22.131Z,83.92
2019-03-21T02:20:50.583Z,87.85
2019-03-21T02:23:19.041Z,94.83
2019-03-21T02:25:47.491Z,98.65
2019-03-21T02:28:15.945Z,79.60
2019-03-21T02:30:46.704Z,89.47
2019-03-21T02:33:21.021Z,88.07
2019-03-21T02:35:49.534Z,91.12
2019-03-21T02:38:17.994Z,92.57
2019-03-21T02:40:47.900Z,100.10
2019-03-21T02:43:16.422Z,83.60
2019-03-21T02:45:44.889Z,91.20
2019-03-21T02:48:13.336Z,99.83
2019-03-21T02:50:43.532Z,100.75
2019-03-21T02:53:11.998Z,101.53
2019-03-21T02:55:40.435Z,97.05
2019-03-21T02:58:08.905Z,97.97
2019-03-21T03:00:39.656Z,86.37
2019-03-21T03:03:08.399Z,89.10
2019-03-21T03:05:37.548Z,93.72
2019-03-21T03:08:07.249Z,85.40
2019-03-21T03:10:44.478Z,72.15
2019-03-21T03:13:12.980Z,87.30
2019-03-21T03:15:42.444Z,83.00
2019-03-21T03:18:19.318Z,80.03
2019-03-21T03:20:47.829Z,80.32
2019-03-21T03:23:16.285Z,89.30
2019-03-21T03:25:44.741Z,90.83
2019-03-21T03:28:34.212Z,80.87
2019-03-21T03:31:02.720Z,84.72
2019-03-21T03:33:31.212Z,85.47
2019-03-21T03:35:59.674Z,87.80
2019-03-21T03:38:28.225Z,75.80
2019-03-21T03:41:04.953Z,87.35
2019-03-21T03:43:33.435Z,91.85
2019-03-21T03:46:01.887Z,87.37
2019-03-21T03:48:30.334Z,90.38
2019-03-21T03:50:58.785Z,91.65
2019-03-21T03:53:27.232Z,91.57
2019-03-21T03:55:55.759Z,93.75
2019-03-21T03:58:29.080Z,93.92
2019-03-21T04:00:58.203Z,92.22
2019-03-21T04:03:28.008Z,89.10
2019-03-21T04:05:56.678Z,89.28
2019-03-21T04:08:25.193Z,85.05
2019-03-21T04:10:54.870Z,87.82
2019-03-21T04:13:23.394Z,81.40
2019-03-21T04:15:53.811Z,91.35
2019-03-21T04:18:23.972Z,88.60
2019-03-21T04:21:00.748Z,90.55
2019-03-21T04:23:29.280Z,92.25
2019-03-21T04:26:09.795Z,95.05
2019-03-21T04:31:05.919Z,94.17
2019-03-21T04:33:34.391Z,98.37
2019-03-21T04:36:02.837Z,87.03
2019-03-21T04:38:31.308Z,100.72
2019-03-21T04:40:59.766Z,90.57
2019-03-21T04:43:28.238Z,92.25
2019-03-21T04:46:03.397Z,87.17
2019-03-21T04:48:26.879Z,102.30
2019-03-21T04:50:55.720Z,87.94
2019-03-21T04:53:24.199Z,85.95
2019-03-21T04:55:52.651Z,96.70
2019-03-21T04:58:21.107Z,92.92
2019-03-21T05:01:10.428Z,95.83
2019-03-21T05:03:38.897Z,96.30
2019-03-21T05:06:07.419Z,81.50
2019-03-21T05:08:35.907Z,86.10
2019-03-21T05:11:04.427Z,77.33
2019-03-21T05:13:32.868Z,74.22
2019-03-21T05:16:01.329Z,71.80
2019-03-21T05:18:35.885Z,85.30
2019-03-21T05:21:07.867Z,67.97
2019-03-21T05:23:36.339Z,73.62
2019-03-21T05:26:05.623Z,65.17
2019-03-21T05:28:34.083Z,63.48
2019-03-21T05:31:08.485Z,55.53
2019-03-21T05:33:36.930Z,51.08
2019-03-21T05:36:05.467Z,60.53
2019-03-21T05:38:34.054Z,59.15
2019-03-21T05:41:02.508Z,56.93
2019-03-21T05:43:43.267Z,59.45
2019-03-21T05:46:11.735Z,59.45
2019-03-21T05:48:40.189Z,58.33
2019-03-21T05:51:08.643Z,49.83
2019-03-21T05:53:37.123Z,61.18
2019-03-21T05:56:05.641Z,52.40
2019-03-21T05:58:34.137Z,57.95
2019-03-21T06:01:08.658Z,60.98
2019-03-21T06:03:50.541Z,58.45
2019-03-21T06:06:37.143Z,65.05
2019-03-21T06:09:08.802Z,60.55
2019-03-21T06:11:39.708Z,64.47
2019-03-21T06:14:08.233Z,72.25
2019-03-21T06:16:37.846Z,72.45
2019-03-21T06:19:21.357Z,69.17
2019-03-21T06:21:52.871Z,61.98
2019-03-21T06:24:44.995Z,70.37
2019-03-21T06:27:30.787Z,67.22
2019-03-21T06:29:59.249Z,67.90
2019-03-21T06:32:28.619Z,67.35
2019-03-21T06:34:57.377Z,73.67
2019-03-21T06:37:28.440Z,75.80
2019-03-21T06:39:56.543Z,65.12
2019-03-21T06:42:25.207Z,63.52
2019-03-21T06:44:53.655Z,71.28
2019-03-21T06:47:22.294Z,63.55
2019-03-21T06:49:50.744Z,56.58
2019-03-21T06:52:19.196Z,66.67
2019-03-21T06:54:47.658Z,59.88
2019-03-21T06:57:16.114Z,60.65
2019-03-21T06:59:44.579Z,69.20
2019-03-21T07:02:13.111Z,65.12
2019-03-21T07:04:41.555Z,63.42
2019-03-21T07:07:10.007Z,65.20
2019-03-21T07:09:38.464Z,73.20
2019-03-21T07:12:07.011Z,61.90
2019-03-21T07:14:35.470Z,65.40
2019-03-21T07:17:03.941Z,62.80
2019-03-21T07:19:32.396Z,65.08
2019-03-21T07:22:00.880Z,59.58
2019-03-21T07:24:29.331Z,62.67
2019-03-21T07:26:57.787Z,69.17
2019-03-21T07:29:26.245Z,66.28
2019-03-21T07:31:54.716Z,68.72
2019-03-21T07:34:23.173Z,67.62
2019-03-21T07:36:51.631Z,71.25
2019-03-21T07:39:20.091Z,79.05
2019-03-21T07:41:48.551Z,75.85
2019-03-21T07:44:16.996Z,76.57
2019-03-21T07:46:45.459Z,76.67
2019-03-21T07:49:13.995Z,74.22
2019-03-21T07:51:44.938Z,66.50
2019-03-21T07:54:12.638Z,61.15
2019-03-21T07:56:41.099Z,69.75
2019-03-21T07:59:09.568Z,62.93
2019-03-21T08:01:38.123Z,67.53
2019-03-21T08:04:06.643Z,61.63
2019-03-21T08:06:35.141Z,56.73
2019-03-21T08:09:05.066Z,51.02
2019-03-21T08:11:52.891Z,60.78
2019-03-21T08:14:21.339Z,50.67
2019-03-21T08:16:49.793Z,52.93
2019-03-21T08:19:18.259Z,56.95
2019-03-21T08:21:46.712Z,55.10
2019-03-21T08:24:15.287Z,49.83
2019-03-21T08:26:43.748Z,50.78
2019-03-21T08:29:12.211Z,41.50
2019-03-21T08:31:40.686Z,48.40
2019-03-21T08:34:09.226Z,54.35
2019-03-21T08:36:37.695Z,49.53
2019-03-21T08:39:07.787Z,56.55
2019-03-21T08:41:36.400Z,59.18
2019-03-21T08:44:04.921Z,51.98
2019-03-21T08:46:33.383Z,57.15
2019-03-21T08:49:01.870Z,49.77
2019-03-21T08:51:30.379Z,51.70
2019-03-21T08:53:58.840Z,49.93
2019-03-21T08:56:27.316Z,54.73
2019-03-21T08:58:55.779Z,52.65
2019-03-21T09:01:24.249Z,51.85
2019-03-21T09:03:52.763Z,47.50
2019-03-21T09:06:21.221Z,48.35
2019-03-21T09:08:49.836Z,48.48
2019-03-21T09:11:18.288Z,46.95
2019-03-21T09:13:46.764Z,47.62
2019-03-21T09:16:15.221Z,45.35
2019-03-21T09:18:43.667Z,41.02
2019-03-21T09:21:19.557Z,35.13
2019-03-21T09:23:42.324Z,32.78
2019-03-21T09:26:10.859Z,33.87
2019-03-21T09:28:39.309Z,39.40
2019-03-21T09:31:07.764Z,40.33
2019-03-21T09:33:36.227Z,35.45
2019-03-21T09:36:04.773Z,37.17
2019-03-21T09:38:33.220Z,40.80
2019-03-21T09:41:01.663Z,36.23
2019-03-21T09:43:30.135Z,35.30
2019-03-21T09:45:58.598Z,39.92
2019-03-21T09:48:27.060Z,40.92
2019-03-21T09:50:56.018Z,38.56
2019-03-21T09:53:24.464Z,33.35
2019-03-21T09:55:52.927Z,42.55
2019-03-21T09:58:21.383Z,36.40
2019-03-21T10:00:49.840Z,41.45
2019-03-21T10:03:18.304Z,39.25
2019-03-21T10:05:46.751Z,44.18
2019-03-21T10:08:15.205Z,41.73
2019-03-21T10:10:43.656Z,42.38
2019-03-21T10:13:12.112Z,36.20
2019-03-21T10:15:40.575Z,40.78
2019-03-21T10:18:09.043Z,41.58
2019-03-21T10:20:37.494Z,51.08
2019-03-21T10:23:05.941Z,46.88
2019-03-21T10:25:34.412Z,38.67
2019-03-21T10:28:02.867Z,47.05
2019-03-21T10:30:42.320Z,43.98
2019-03-21T10:33:12.544Z,45.13
2019-03-21T10:35:41.051Z,53.40
2019-03-21T10:38:09.572Z,49.80
2019-03-21T10:40:38.180Z,43.40
2019-03-21T10:43:06.799Z,50.33
2019-03-21T10:45:35.528Z,37.38
2019-03-21T10:48:04.543Z,46.92
2019-03-21T10:50:40.904Z,41.20
2019-03-21T10:53:09.513Z,48.75
2019-03-21T10:55:38.190Z,39.78
2019-03-21T10:58:07.600Z,50.28
2019-03-21T11:00:36.223Z,45.48
2019-03-21T11:03:04.932Z,44.63
2019-03-21T11:05:33.379Z,46.68
2019-03-21T11:08:02.664Z,46.63
2019-03-21T11:10:31.124Z,38.30
2019-03-21T11:12:59.563Z,44.00
2019-03-21T11:15:28.130Z,45.08
2019-03-21T11:17:56.743Z,39.08
2019-03-21T11:20:36.595Z,38.88
2019-03-21T11:23:06.083Z,38.00
2019-03-21T11:25:34.612Z,42.93
2019-03-21T11:28:03.142Z,43.10
2019-03-21T11:30:41.731Z,41.85
2019-03-21T11:33:10.609Z,46.30
2019-03-21T11:35:39.054Z,46.58
2019-03-21T11:38:07.636Z,40.85
2019-03-21T11:40:36.172Z,48.83
2019-03-21T11:43:06.901Z,48.95
2019-03-21T11:45:35.436Z,34.35
2019-03-21T11:48:04.615Z,41.20
2019-03-21T11:50:33.111Z,39.75
2019-03-21T11:53:01.800Z,41.92
2019-03-21T11:55:30.275Z,41.35
2019-03-21T11:57:58.746Z,40.38
2019-03-21T12:00:27.219Z,40.30
2019-03-21T12:02:55.741Z,46.02
2019-03-21T12:05:24.188Z,44.85
2019-03-21T12:07:52.651Z,38.90
2019-03-21T12:10:21.107Z,44.53
2019-03-21T12:12:49.576Z,36.23
2019-03-21T12:15:18.589Z,33.53
2019-03-21T12:17:47.039Z,35.58
2019-03-21T12:20:30.647Z,36.45
2019-03-21T12:22:59.169Z,31.48
2019-03-21T12:25:27.765Z,33.92
2019-03-21T12:27:56.308Z,28.60
2019-03-21T12:30:33.061Z,28.05
2019-03-21T12:33:01.517Z,30.30
2019-03-21T12:35:30.046Z,27.73
2019-03-21T12:37:58.531Z,27.37
2019-03-21T12:40:27.225Z,24.95
2019-03-21T12:42:55.671Z,23.45
2019-03-21T12:45:24.181Z,28.60
2019-03-21T12:47:52.627Z,23.10
2019-03-21T12:50:21.094Z,20.85
2019-03-21T12:52:49.540Z,26.75
2019-03-21T12:55:18.000Z,21.60
2019-03-21T12:57:46.455Z,27.90
2019-03-21T13:00:15.663Z,27.13
2019-03-21T13:02:44.115Z,23.02
2019-03-21T13:05:27.566Z,27.00
2019-03-21T13:07:56.018Z,25.20
2019-03-21T13:10:24.483Z,21.25
2019-03-21T13:12:52.947Z,23.20
2019-03-21T13:15:29.506Z,26.33
2019-03-21T13:17:51.651Z,24.90
2019-03-21T13:20:20.101Z,28.32
2019-03-21T13:22:52.851Z,27.20
2019-03-21T13:25:18.752Z,28.55
2019-03-21T13:27:47.282Z,28.20
2019-03-21T13:30:15.907Z,27.05
2019-03-21T13:32:46.956Z,25.68
2019-03-21T13:35:14.593Z,21.45
2019-03-21T13:37:43.045Z,25.30
2019-03-21T13:40:11.748Z,24.60
2019-03-21T13:42:40.207Z,28.12
2019-03-21T13:45:08.861Z,29.80
2019-03-21T13:47:37.320Z,23.25
2019-03-21T13:50:09.983Z,24.18
2019-03-21T13:52:38.472Z,22.70
2019-03-21T13:55:09.174Z,23.40
2019-03-21T13:57:37.630Z,24.00
2019-03-21T14:00:14.723Z,27.85
2019-03-21T14:02:43.168Z,25.27
2019-03-21T14:05:11.711Z,27.77
2019-03-21T14:07:40.156Z,26.52
2019-03-21T14:10:10.351Z,24.37
2019-03-21T14:12:38.811Z,22.35
2019-03-21T14:15:10.023Z,24.75
2019-03-21T14:17:38.463Z,24.25
2019-03-21T14:20:09.271Z,23.50
2019-03-21T14:22:37.715Z,30.48
2019-03-21T14:25:07.868Z,24.10
2019-03-21T14:27:36.398Z,24.32
2019-03-21T14:30:13.494Z,25.72
2019-03-21T14:32:41.954Z,27.27
2019-03-21T14:35:10.551Z,24.10
2019-03-21T14:37:39.015Z,28.38
2019-03-21T14:40:10.497Z,27.95
2019-03-21T14:42:38.976Z,29.40
2019-03-21T14:45:09.622Z,31.25
2019-03-21T14:47:38.079Z,31.65
2019-03-21T14:50:09.518Z,31.82
2019-03-21T14:52:37.975Z,28.20
2019-03-21T14:55:08.099Z,30.35
2019-03-21T14:57:36.623Z,30.70
2019-03-21T15:00:13.694Z,33.83
2019-03-21T15:02:42.158Z,31.37
2019-03-21T15:05:11.242Z,33.80
2019-03-21T15:07:39.715Z,30.73
2019-03-21T15:10:11.171Z,31.17
2019-03-21T15:12:39.649Z,31.15
2019-03-21T15:15:10.701Z,27.67
2019-03-21T15:17:39.155Z,28.30
2019-03-21T15:20:10.314Z,29.92
2019-03-21T15:22:38.767Z,33.00
2019-03-21T15:25:09.456Z,31.45
2019-03-21T15:27:37.906Z,28.40
2019-03-21T15:30:09.494Z,28.02
2019-03-21T15:32:38.183Z,29.98
2019-03-21T15:35:09.085Z,32.38
2019-03-21T15:37:37.530Z,24.85
2019-03-21T15:40:11.168Z,27.48
2019-03-21T15:42:39.654Z,27.05
2019-03-21T15:45:22.394Z,27.02
2019-03-21T15:47:41.723Z,26.55
2019-03-21T15:50:15.977Z,27.58
2019-03-21T15:52:44.452Z,28.90
2019-03-21T15:55:12.942Z,31.45
2019-03-21T15:57:41.508Z,40.88
2019-03-21T16:00:11.288Z,33.15
2019-03-21T16:05:08.520Z,30.65
2019-03-21T16:07:36.959Z,30.87
2019-03-21T16:10:06.879Z,27.62
2019-03-21T16:12:35.318Z,33.38
2019-03-21T16:15:06.200Z,29.98
2019-03-21T16:17:34.659Z,31.40
2019-03-21T16:20:05.003Z,32.50
2019-03-21T16:22:33.465Z,31.05
2019-03-21T16:25:01.912Z,32.25
2019-03-21T16:27:30.416Z,34.85
2019-03-21T16:29:58.938Z,30.40
2019-03-21T16:32:27.404Z,33.42
2019-03-21T16:34:55.873Z,30.15
2019-03-21T16:37:24.353Z,33.38
2019-03-21T16:39:52.799Z,33.75
2019-03-21T16:42:21.259Z,30.05
2019-03-21T16:44:49.757Z,32.17
2019-03-21T16:47:18.203Z,32.15
2019-03-21T16:49:46.660Z,31.27
2019-03-21T16:52:15.104Z,29.12
2019-03-21T16:54:43.580Z,27.70
2019-03-21T16:57:12.066Z,29.92
2019-03-21T16:59:40.512Z,29.00
2019-03-21T17:02:09.052Z,26.70
2019-03-21T17:04:37.496Z,33.92
2019-03-21T17:07:05.976Z,30.62
2019-03-21T17:09:34.492Z,30.27
2019-03-21T17:12:03.072Z,25.75
2019-03-21T17:14:31.523Z,33.63
2019-03-21T17:16:59.978Z,31.90
2019-03-21T17:19:28.461Z,31.77
2019-03-21T17:21:56.906Z,27.45
2019-03-21T17:24:29.620Z,27.65
2019-03-21T17:26:55.621Z,29.25
2019-03-21T17:29:24.151Z,28.15
2019-03-21T17:31:52.598Z,29.70
2019-03-21T17:34:21.048Z,31.70
2019-03-21T17:36:49.523Z,26.95
2019-03-21T17:39:17.976Z,29.45
2019-03-21T17:41:46.440Z,28.80
2019-03-21T17:44:15.744Z,32.53
2019-03-21T17:46:44.212Z,30.80
2019-03-21T17:49:12.670Z,32.30
2019-03-21T17:51:41.113Z,29.23
2019-03-21T17:54:09.567Z,33.40
2019-03-21T17:56:38.045Z,33.58
2019-03-21T17:59:06.495Z,33.83
2019-03-21T18:01:34.968Z,30.32
2019-03-21T18:04:03.492Z,33.85
2019-03-21T18:06:31.947Z,32.38
2019-03-21T18:09:00.395Z,33.35
2019-03-21T18:11:28.850Z,35.48
2019-03-21T18:13:57.331Z,30.17
2019-03-21T18:16:25.936Z,33.50
2019-03-21T18:18:54.415Z,30.95
2019-03-21T18:21:22.868Z,30.60
2019-03-21T18:23:51.440Z,31.15
2019-03-21T18:26:19.934Z,34.33
2019-03-21T18:28:48.379Z,39.05
2019-03-21T18:31:16.835Z,34.38
2019-03-21T18:33:45.299Z,33.95
2019-03-21T18:36:13.773Z,37.47
2019-03-21T18:38:42.225Z,34.25
2019-03-21T18:41:10.692Z,36.07
2019-03-21T18:43:39.158Z,34.30
2019-03-21T18:46:07.707Z,33.07
2019-03-21T18:48:36.159Z,37.75
2019-03-21T18:51:04.786Z,35.73
2019-03-21T18:53:33.246Z,34.48
2019-03-21T18:56:01.713Z,36.57
2019-03-21T18:58:30.324Z,34.00
2019-03-21T19:00:58.957Z,32.28
2019-03-21T19:03:27.497Z,36.63
2019-03-21T19:05:56.524Z,37.94
2019-03-21T19:08:25.039Z,42.10
2019-03-21T19:10:53.492Z,38.33
2019-03-21T19:13:21.939Z,38.88
2019-03-21T19:15:50.391Z,40.00
2019-03-21T19:18:18.847Z,42.38
2019-03-21T19:20:47.402Z,37.70
2019-03-21T19:23:15.932Z,38.53
2019-03-21T19:25:44.415Z,38.20
2019-03-21T19:28:12.886Z,37.10
2019-03-21T19:30:41.407Z,36.30
2019-03-21T19:33:09.908Z,37.50
2019-03-21T19:35:38.352Z,39.53
2019-03-21T19:38:06.831Z,39.25
2019-03-21T19:40:35.416Z,43.38
2019-03-21T19:43:04.015Z,45.48
2019-03-21T19:45:32.639Z,40.88
2019-03-21T19:48:01.109Z,41.92
2019-03-21T19:50:29.555Z,43.95
2019-03-21T19:52:58.035Z,35.92
2019-03-21T19:55:31.228Z,41.65
2019-03-21T19:57:56.751Z,45.92
2019-03-21T20:00:25.203Z,46.50
2019-03-21T20:02:53.940Z,47.00
2019-03-21T20:05:22.401Z,48.50
2019-03-21T20:07:50.903Z,48.15
2019-03-21T20:10:20.963Z,53.15
2019-03-21T20:12:49.485Z,45.08
2019-03-21T20:15:18.375Z,53.00
2019-03-21T20:17:46.909Z,50.97
2019-03-21T20:20:16.895Z,49.63
2019-03-21T20:22:45.584Z,48.50
2019-03-21T20:25:14.599Z,45.58
2019-03-21T20:27:43.183Z,46.18
2019-03-21T20:30:21.642Z,48.87
2019-03-21T20:32:50.213Z,48.92
2019-03-21T20:35:18.769Z,53.52
2019-03-21T20:37:47.290Z,52.08
2019-03-21T20:40:17.900Z,55.78
2019-03-21T20:42:46.420Z,52.78
2019-03-21T20:45:17.280Z,53.17
2019-03-21T20:47:45.743Z,49.93
2019-03-21T20:50:14.354Z,51.30
2019-03-21T20:52:42.819Z,52.35
2019-03-21T20:55:11.582Z,55.60
2019-03-21T20:57:40.131Z,47.85
2019-03-21T21:00:17.335Z,57.38
2019-03-21T21:02:45.786Z,52.90
2019-03-21T21:05:14.372Z,52.88
2019-03-21T21:07:42.823Z,50.92
2019-03-21T21:10:12.329Z,54.85
2019-03-21T21:12:40.808Z,61.30
2019-03-21T21:15:11.859Z,52.45
2019-03-21T21:17:42.880Z,55.65
2019-03-21T21:20:12.933Z,56.88
2019-03-21T21:22:41.527Z,57.10
2019-03-21T21:25:10.122Z,57.33
2019-03-21T21:27:48.701Z,59.42
2019-03-21T21:30:16.875Z,56.75
2019-03-21T21:32:45.336Z,53.15
2019-03-21T21:35:13.905Z,55.40
2019-03-21T21:37:42.439Z,56.53
2019-03-21T21:40:12.125Z,61.60
2019-03-21T21:42:40.632Z,49.40
2019-03-21T21:45:14.236Z,57.93
2019-03-21T21:47:42.726Z,56.98
2019-03-21T21:50:13.410Z,61.45
2019-03-21T21:52:42.452Z,58.60
2019-03-21T21:55:11.327Z,58.38
2019-03-21T21:57:39.805Z,59.70
2019-03-21T22:00:11.365Z,57.80
2019-03-21T22:02:39.851Z,56.98
2019-03-21T22:05:08.539Z,62.40
2019-03-21T22:07:36.995Z,63.55
2019-03-21T22:10:07.481Z,63.78
2019-03-21T22:12:36.376Z,59.67
2019-03-21T22:15:08.234Z,59.53
2019-03-21T22:17:36.707Z,63.85
2019-03-21T22:20:06.811Z,62.25
2019-03-21T22:25:03.609Z,60.58
2019-03-21T22:27:32.056Z,64.27
2019-03-21T22:30:00.551Z,67.78
2019-03-21T22:32:29.038Z,72.27
2019-03-21T22:34:57.543Z,68.00
2019-03-21T22:37:25.991Z,64.47
2019-03-21T22:39:54.471Z,61.65
2019-03-21T22:42:23.045Z,70.52
2019-03-21T22:44:51.500Z,62.53
2019-03-21T22:47:19.950Z,68.28
2019-03-21T22:49:48.399Z,67.70
2019-03-21T22:52:16.854Z,74.25
2019-03-21T22:54:45.299Z,67.30
2019-03-21T22:57:13.803Z,64.32
2019-03-21T22:59:42.326Z,68.30
2019-03-21T23:02:10.839Z,71.05
2019-03-21T23:04:39.302Z,72.35
2019-03-21T23:07:07.743Z,64.27
2019-03-21T23:09:36.202Z,63.87
2019-03-21T23:12:04.665Z,64.07
2019-03-21T23:14:33.112Z,68.78
2019-03-21T23:17:01.571Z,69.12
2019-03-21T23:19:30.043Z,70.42
2019-03-21T23:21:58.565Z,67.25
2019-03-21T23:24:27.026Z,70.10
2019-03-21T23:26:55.507Z,68.75
2019-03-21T23:29:23.951Z,72.03
2019-03-21T23:31:52.423Z,68.12
2019-03-21T23:34:20.867Z,66.07
2019-03-21T23:36:49.348Z,65.67
2019-03-21T23:39:17.860Z,63.90
2019-03-21T23:41:46.314Z,63.68
2019-03-21T23:44:14.772Z,64.15
2019-03-21T23:46:43.252Z,68.60
2019-03-21T23:49:11.695Z,64.42
2019-03-21T23:51:40.161Z,66.35
2019-03-21T23:54:08.611Z,54.38
2019-03-21T23:56:37.063Z,57.48
2019-03-21T23:59:05.524Z,66.57
